Terminal Aerodrome Forecast
Issued by NWS Billings, MT

Home | Current Version | Previous Version | Text Only | Print | Product List | Glossary On
Versions: 1 2 3 4 5 6 7 8 9 10 11 12 13 14
000
FTUS45 KBYZ 121120
TAFBIL
TAF
KBIL 121120Z 1212/1312 23018KT P6SM SKC
     FM121600 23025G35KT P6SM SCT150
     FM130300 29015KT P6SM SCT150=

USA.gov is the U.S. government's official web portal to all federal, state and local government web resources and services.